createdAt,value
2023-11-12T00:00:29.300Z,100035.00
2023-11-12T00:02:56.057Z,100033.00
2023-11-12T00:05:23.385Z,100033.00
2023-11-12T00:07:50.129Z,100025.00
2023-11-12T00:10:16.813Z,100029.00
2023-11-12T00:12:43.631Z,100030.00
2023-11-12T00:15:10.357Z,100038.00
2023-11-12T00:17:38.814Z,100034.00
2023-11-12T00:20:07.531Z,100031.00
2023-11-12T00:22:35.352Z,100031.00
2023-11-12T00:25:03.310Z,100031.00
2023-11-12T00:27:30.116Z,100033.00
2023-11-12T00:29:56.742Z,100035.00
2023-11-12T00:32:23.779Z,100028.00
2023-11-12T00:34:50.398Z,100029.00
2023-11-12T00:37:17.271Z,100037.00
2023-11-12T00:39:43.879Z,100045.00
2023-11-12T00:42:10.496Z,100041.00
2023-11-12T00:44:38.322Z,100035.00
2023-11-12T00:47:04.972Z,100042.00
2023-11-12T00:49:31.874Z,100032.00
2023-11-12T00:51:58.499Z,100030.00
2023-11-12T00:54:25.352Z,100036.00
2023-11-12T00:56:51.988Z,100044.00
2023-11-12T00:59:18.622Z,100048.00
2023-11-12T01:01:45.608Z,100044.00
2023-11-12T01:04:12.795Z,100044.00
2023-11-12T01:06:39.457Z,100053.00
2023-11-12T01:09:06.102Z,100053.00
2023-11-12T01:11:32.708Z,100051.00
2023-11-12T01:16:27.424Z,100047.00
2023-11-12T01:18:53.999Z,100051.00
2023-11-12T01:21:20.557Z,100056.00
2023-11-12T01:23:47.367Z,100068.00
2023-11-12T01:26:13.953Z,100075.00
2023-11-12T01:28:41.145Z,100073.00
2023-11-12T01:31:08.782Z,100061.00
2023-11-12T01:33:36.198Z,100064.00
2023-11-12T01:36:02.828Z,100062.00
2023-11-12T01:38:31.657Z,100063.00
2023-11-12T01:41:04.177Z,100064.00
2023-11-12T01:43:31.606Z,100066.00
2023-11-12T01:46:00.286Z,100073.00
2023-11-12T01:48:26.903Z,100061.00
2023-11-12T01:51:01.077Z,100056.00
2023-11-12T01:53:29.308Z,100060.00
2023-11-12T01:55:57.227Z,100054.00
2023-11-12T01:58:27.172Z,100059.00
2023-11-12T02:00:53.874Z,100060.00
2023-11-12T02:03:21.329Z,100048.00
2023-11-12T02:05:47.957Z,100054.00
2023-11-12T02:08:15.196Z,100063.00
2023-11-12T02:10:43.119Z,100046.00
2023-11-12T02:13:09.820Z,100057.00
2023-11-12T02:15:36.650Z,100047.00
2023-11-12T02:18:03.482Z,100047.00
2023-11-12T02:20:30.087Z,100049.00
2023-11-12T02:22:56.745Z,100046.00
2023-11-12T02:25:23.273Z,100051.00
2023-11-12T02:27:50.387Z,100060.00
2023-11-12T02:30:20.268Z,100054.00
2023-11-12T02:32:48.895Z,100054.00
2023-11-12T02:35:15.861Z,100050.00
2023-11-12T02:37:42.885Z,100049.00
2023-11-12T02:40:10.600Z,100049.00
2023-11-12T02:42:38.518Z,100044.00
2023-11-12T02:45:06.934Z,100053.00
2023-11-12T02:47:36.463Z,100051.00
2023-11-12T02:50:03.045Z,100046.00
2023-11-12T02:52:29.618Z,100042.00
2023-11-12T02:54:56.401Z,100043.00
2023-11-12T02:57:23.563Z,100059.00
2023-11-12T02:59:50.948Z,100059.00
2023-11-12T03:02:18.214Z,100049.00
2023-11-12T03:04:44.816Z,100040.00
2023-11-12T03:07:11.451Z,100045.00
2023-11-12T03:09:38.057Z,100053.00
2023-11-12T03:12:05.895Z,100053.00
2023-11-12T03:14:32.776Z,100053.00
2023-11-12T03:16:59.447Z,100044.00
2023-11-12T03:19:26.325Z,100051.00
2023-11-12T03:21:56.781Z,100059.00
2023-11-12T03:24:24.095Z,100057.00
2023-11-12T03:26:56.732Z,100053.00
2023-11-12T03:29:26.457Z,100057.00
2023-11-12T03:31:54.593Z,100058.00
2023-11-12T03:34:21.364Z,100053.00
2023-11-12T03:36:47.994Z,100051.00
2023-11-12T03:39:14.673Z,100048.00
2023-11-12T03:41:41.280Z,100050.00
2023-11-12T03:44:08.654Z,100061.00
2023-11-12T03:46:36.894Z,100060.00
2023-11-12T03:49:05.873Z,100061.00
2023-11-12T03:51:34.059Z,100061.00
2023-11-12T03:54:04.072Z,100065.00
2023-11-12T03:56:31.401Z,100066.00
2023-11-12T03:58:58.765Z,100068.00
2023-11-12T04:01:25.798Z,100067.00
2023-11-12T04:03:52.611Z,100065.00
2023-11-12T04:06:20.402Z,100061.00
2023-11-12T04:08:48.556Z,100064.00
2023-11-12T04:11:15.178Z,100073.00
2023-11-12T04:13:41.796Z,100067.00
2023-11-12T04:16:09.915Z,100070.00
2023-11-12T04:18:37.820Z,100076.00
2023-11-12T04:21:08.130Z,100066.00
2023-11-12T04:23:34.812Z,100079.00
2023-11-12T04:26:02.210Z,100074.00
2023-11-12T04:28:30.444Z,100070.00
2023-11-12T04:30:57.609Z,100063.00
2023-11-12T04:33:24.152Z,100076.00
2023-11-12T04:35:51.333Z,100082.00
2023-11-12T04:38:18.264Z,100077.00
2023-11-12T04:40:45.884Z,100069.00
2023-11-12T04:43:13.731Z,100078.00
2023-11-12T04:45:40.472Z,100085.00
2023-11-12T04:48:07.269Z,100077.00
2023-11-12T04:50:34.192Z,100081.00
2023-11-12T04:53:01.062Z,100084.00
2023-11-12T04:55:27.844Z,100084.00
2023-11-12T04:57:54.699Z,100082.00
2023-11-12T05:00:21.385Z,100094.00
2023-11-12T05:02:48.148Z,100099.00
2023-11-12T05:05:15.282Z,100098.00
2023-11-12T05:07:41.838Z,100087.00
2023-11-12T05:10:10.255Z,100096.00
2023-11-12T05:12:36.875Z,100097.00
2023-11-12T05:15:10.117Z,100103.00
2023-11-12T05:17:37.410Z,100105.00
2023-11-12T05:20:06.572Z,100093.00
2023-11-12T05:22:33.659Z,100105.00
2023-11-12T05:25:01.409Z,100094.00
2023-11-12T05:27:28.998Z,100103.00
2023-11-12T05:29:55.841Z,100107.00
2023-11-12T05:32:22.494Z,100107.00
2023-11-12T05:34:49.387Z,100107.00
2023-11-12T05:37:15.934Z,100104.00
2023-11-12T05:39:42.521Z,100107.00
2023-11-12T05:42:09.474Z,100107.00
2023-11-12T05:44:36.102Z,100111.00
2023-11-12T05:47:02.675Z,100115.00
2023-11-12T05:49:29.357Z,100112.00
2023-11-12T05:51:58.314Z,100098.00
2023-11-12T05:54:24.885Z,100109.00
2023-11-12T05:56:51.525Z,100106.00
2023-11-12T05:59:18.425Z,100114.00
2023-11-12T06:01:45.307Z,100108.00
2023-11-12T06:04:12.316Z,100109.00
2023-11-12T06:06:40.422Z,100118.00
2023-11-12T06:09:08.679Z,100121.00
2023-11-12T06:11:38.767Z,100129.00
2023-11-12T06:14:05.431Z,100132.00
2023-11-12T06:16:32.243Z,100134.00
2023-11-12T06:18:59.526Z,100133.00
2023-11-12T06:21:31.908Z,100154.00
2023-11-12T06:23:58.788Z,100141.00
2023-11-12T06:26:25.635Z,100144.00
2023-11-12T06:28:52.235Z,100147.00
2023-11-12T06:31:19.156Z,100150.00
2023-11-12T06:33:45.930Z,100147.00
2023-11-12T06:36:14.941Z,100147.00
2023-11-12T06:38:45.468Z,100155.00
2023-11-12T06:41:12.003Z,100163.00
2023-11-12T06:43:38.768Z,100161.00
2023-11-12T06:46:06.399Z,100162.00
2023-11-12T06:48:33.416Z,100162.00
2023-11-12T06:51:01.565Z,100160.00
2023-11-12T06:53:29.149Z,100168.00
2023-11-12T06:55:55.927Z,100175.00
2023-11-12T06:58:22.454Z,100176.00
2023-11-12T07:00:49.473Z,100173.00
2023-11-12T07:03:16.309Z,100153.00
2023-11-12T07:05:43.742Z,100163.00
2023-11-12T07:08:10.335Z,100174.00
2023-11-12T07:10:39.611Z,100178.00
2023-11-12T07:13:06.636Z,100186.00
2023-11-12T07:15:33.355Z,100176.00
2023-11-12T07:18:00.015Z,100169.00
2023-11-12T07:20:33.319Z,100181.00
2023-11-12T07:23:01.767Z,100175.00
2023-11-12T07:25:28.576Z,100188.00
2023-11-12T07:27:55.635Z,100184.00
2023-11-12T07:30:23.180Z,100180.00
2023-11-12T07:32:50.236Z,100183.00
2023-11-12T07:35:17.173Z,100179.00
2023-11-12T07:37:44.675Z,100181.00
2023-11-12T07:40:17.101Z,100186.00
2023-11-12T07:42:44.493Z,100185.00
2023-11-12T07:45:14.023Z,100183.00
2023-11-12T07:47:42.309Z,100183.00
2023-11-12T07:50:11.113Z,100190.00
2023-11-12T07:52:37.709Z,100193.00
2023-11-12T07:55:06.411Z,100195.00
2023-11-12T07:57:34.779Z,100189.00
2023-11-12T08:00:02.251Z,100186.00
2023-11-12T08:02:29.481Z,100193.00
2023-11-12T08:04:57.648Z,100201.00
2023-11-12T08:07:24.241Z,100181.00
2023-11-12T08:09:52.345Z,100186.00
2023-11-12T08:12:19.278Z,100182.00
2023-11-12T08:14:45.827Z,100181.00
2023-11-12T08:17:13.510Z,100187.00
2023-11-12T08:19:40.100Z,100182.00
2023-11-12T08:22:07.050Z,100189.00
2023-11-12T08:24:34.563Z,100192.00
2023-11-12T08:27:03.827Z,100202.00
2023-11-12T08:29:32.645Z,100197.00
2023-11-12T08:31:59.538Z,100204.00
2023-11-12T08:34:26.477Z,100201.00
2023-11-12T08:36:54.165Z,100204.00
2023-11-12T08:39:20.932Z,100215.00
2023-11-12T08:41:48.377Z,100210.00
2023-11-12T08:44:16.336Z,100211.00
2023-11-12T08:46:43.682Z,100198.00
2023-11-12T08:49:10.578Z,100207.00
2023-11-12T08:51:37.369Z,100208.00
2023-11-12T08:54:04.585Z,100205.00
2023-11-12T08:56:33.963Z,100206.00
2023-11-12T08:59:01.324Z,100210.00
2023-11-12T09:01:28.158Z,100205.00
2023-11-12T09:03:54.826Z,100214.00
2023-11-12T09:06:21.813Z,100212.00
2023-11-12T09:08:48.983Z,100205.00
2023-11-12T09:11:16.098Z,100208.00
2023-11-12T09:13:43.870Z,100212.00
2023-11-12T09:16:12.186Z,100220.00
2023-11-12T09:18:40.056Z,100215.00
2023-11-12T09:21:07.104Z,100214.00
2023-11-12T09:23:33.843Z,100218.00
2023-11-12T09:26:00.578Z,100225.00
2023-11-12T09:28:27.435Z,100227.00
2023-11-12T09:30:59.567Z,100230.00
2023-11-12T09:33:28.800Z,100227.00
2023-11-12T09:35:58.009Z,100233.00
2023-11-12T09:38:24.604Z,100237.00
2023-11-12T09:40:53.560Z,100238.00
2023-11-12T09:43:20.503Z,100245.00
2023-11-12T09:45:51.617Z,100238.00
2023-11-12T09:48:31.508Z,100237.00
2023-11-12T09:50:58.824Z,100236.00
2023-11-12T09:53:25.417Z,100238.00
2023-11-12T09:55:55.443Z,100244.00
2023-11-12T09:58:23.222Z,100240.00
2023-11-12T10:00:53.882Z,100246.00
2023-11-12T10:03:21.033Z,100242.00
2023-11-12T10:05:47.726Z,100244.00
2023-11-12T10:08:15.113Z,100243.00
2023-11-12T10:10:43.103Z,100246.00
2023-11-12T10:13:10.622Z,100234.00
2023-11-12T10:15:38.950Z,100236.00
2023-11-12T10:18:05.803Z,100248.00
2023-11-12T10:20:37.492Z,100246.00
2023-11-12T10:23:05.078Z,100247.00
2023-11-12T10:25:45.541Z,100250.00
2023-11-12T10:28:13.325Z,100245.00
2023-11-12T10:30:44.923Z,100241.00
2023-11-12T10:33:21.904Z,100250.00
2023-11-12T10:35:49.049Z,100254.00
2023-11-12T10:38:19.951Z,100251.00
2023-11-12T10:41:04.502Z,100253.00
2023-11-12T10:43:32.107Z,100256.00
2023-11-12T10:46:03.478Z,100260.00
2023-11-12T10:48:44.690Z,100258.00
2023-11-12T10:51:14.028Z,100256.00
2023-11-12T10:53:41.522Z,100253.00
2023-11-12T10:56:08.500Z,100254.00
2023-11-12T10:58:36.295Z,100253.00
2023-11-12T11:01:05.124Z,100248.00
2023-11-12T11:03:34.331Z,100259.00
2023-11-12T11:06:03.565Z,100263.00
2023-11-12T11:08:32.799Z,100258.00
2023-11-12T11:11:01.192Z,100256.00
2023-11-12T11:13:28.724Z,100255.00
2023-11-12T11:15:57.291Z,100258.00
2023-11-12T11:18:33.369Z,100261.00
2023-11-12T11:21:07.687Z,100257.00
2023-11-12T11:23:48.496Z,100257.00
2023-11-12T11:26:52.660Z,100259.00
2023-11-12T11:29:21.505Z,100256.00
2023-11-12T11:31:51.615Z,100251.00
2023-11-12T11:34:18.308Z,100250.00
2023-11-12T11:37:00.953Z,100250.00
2023-11-12T11:39:29.795Z,100254.00
2023-11-12T11:41:57.267Z,100251.00
2023-11-12T11:44:39.632Z,100258.00
2023-11-12T11:47:16.946Z,100257.00
2023-11-12T11:49:59.077Z,100253.00
2023-11-12T11:52:28.067Z,100254.00
2023-11-12T11:55:01.422Z,100260.00
2023-11-12T11:57:29.367Z,100250.00
2023-11-12T11:59:57.898Z,100268.00
2023-11-12T12:02:27.013Z,100252.00
2023-11-12T12:04:59.134Z,100257.00
2023-11-12T12:07:31.177Z,100255.00
2023-11-12T12:10:00.990Z,100253.00
2023-11-12T12:12:29.550Z,100259.00
2023-11-12T12:14:56.581Z,100267.00
2023-11-12T12:17:24.535Z,100264.00
2023-11-12T12:19:57.459Z,100263.00
2023-11-12T12:22:28.801Z,100263.00
2023-11-12T12:24:58.618Z,100269.00
2023-11-12T12:27:25.879Z,100262.00
2023-11-12T12:29:53.147Z,100262.00
2023-11-12T12:32:21.851Z,100261.00
2023-11-12T12:35:01.342Z,100259.00
2023-11-12T12:37:29.102Z,100265.00
2023-11-12T12:40:05.420Z,100260.00
2023-11-12T12:42:33.025Z,100262.00
2023-11-12T12:45:00.037Z,100263.00
2023-11-12T12:47:37.936Z,100261.00
2023-11-12T12:50:31.348Z,100267.00
2023-11-12T12:53:19.249Z,100265.00
2023-11-12T12:55:47.904Z,100263.00
2023-11-12T12:58:16.381Z,100268.00
2023-11-12T13:00:44.495Z,100266.00
2023-11-12T13:03:25.172Z,100270.00
2023-11-12T13:05:53.110Z,100265.00
2023-11-12T13:08:20.801Z,100269.00
2023-11-12T13:10:49.629Z,100262.00
2023-11-12T13:13:20.310Z,100269.00
2023-11-12T13:15:48.185Z,100262.00
2023-11-12T13:18:15.989Z,100267.00
2023-11-12T13:20:45.964Z,100271.00
2023-11-12T13:23:12.875Z,100268.00
2023-11-12T13:25:39.752Z,100277.00
2023-11-12T13:28:10.169Z,100275.00
2023-11-12T13:30:37.707Z,100272.00
2023-11-12T13:33:08.850Z,100267.00
2023-11-12T13:35:36.046Z,100275.00
2023-11-12T13:38:02.707Z,100276.00
2023-11-12T13:40:29.272Z,100284.00
2023-11-12T13:42:55.971Z,100278.00
2023-11-12T13:45:24.242Z,100280.00
2023-11-12T13:47:51.153Z,100277.00
2023-11-12T13:50:25.720Z,100278.00
2023-11-12T13:52:59.336Z,100285.00
2023-11-12T13:55:30.407Z,100300.00
2023-11-12T13:57:58.856Z,100294.00
2023-11-12T14:00:31.811Z,100289.00
2023-11-12T14:02:58.949Z,100288.00
2023-11-12T14:05:27.937Z,100289.00
2023-11-12T14:07:55.415Z,100290.00
2023-11-12T14:10:23.074Z,100294.00
2023-11-12T14:12:51.579Z,100290.00
2023-11-12T14:15:23.307Z,100288.00
2023-11-12T14:17:50.424Z,100285.00
2023-11-12T14:20:23.853Z,100288.00
2023-11-12T14:22:51.962Z,100293.00
2023-11-12T14:25:22.713Z,100293.00
2023-11-12T14:27:50.510Z,100288.00
2023-11-12T14:30:20.112Z,100294.00
2023-11-12T14:32:47.290Z,100283.00
2023-11-12T14:35:17.082Z,100292.00
2023-11-12T14:37:44.828Z,100289.00
2023-11-12T14:40:11.718Z,100300.00
2023-11-12T14:42:39.524Z,100294.00
2023-11-12T14:45:14.893Z,100308.00
2023-11-12T14:47:48.432Z,100301.00
2023-11-12T14:50:17.390Z,100300.00
2023-11-12T14:52:44.716Z,100315.00
2023-11-12T14:55:22.094Z,100312.00
2023-11-12T14:57:53.149Z,100304.00
2023-11-12T15:00:24.982Z,100300.00
2023-11-12T15:02:51.660Z,100305.00
2023-11-12T15:05:18.770Z,100299.00
2023-11-12T15:07:48.653Z,100306.00
2023-11-12T15:10:15.425Z,100301.00
2023-11-12T15:12:42.628Z,100316.00
2023-11-12T15:15:09.997Z,100302.00
2023-11-12T15:17:36.772Z,100308.00
2023-11-12T15:20:11.093Z,100308.00
2023-11-12T15:22:37.800Z,100307.00
2023-11-12T15:25:05.308Z,100314.00
2023-11-12T15:27:32.182Z,100306.00
2023-11-12T15:29:59.087Z,100321.00
2023-11-12T15:32:28.776Z,100315.00
2023-11-12T15:34:55.348Z,100325.00
2023-11-12T15:37:22.394Z,100317.00
2023-11-12T15:39:49.410Z,100323.00
2023-11-12T15:42:16.554Z,100321.00
2023-11-12T15:44:49.454Z,100320.00
2023-11-12T15:47:19.486Z,100338.00
2023-11-12T15:49:47.861Z,100333.00
2023-11-12T15:52:15.066Z,100331.00
2023-11-12T15:54:47.045Z,100345.00
2023-11-12T15:57:13.742Z,100333.00
2023-11-12T15:59:40.601Z,100341.00
2023-11-12T16:02:07.939Z,100343.00
2023-11-12T16:04:34.675Z,100342.00
2023-11-12T16:07:01.386Z,100340.00
2023-11-12T16:09:28.790Z,100347.00
2023-11-12T16:11:55.618Z,100350.00
2023-11-12T16:14:22.252Z,100352.00
2023-11-12T16:16:48.878Z,100363.00
2023-11-12T16:19:15.455Z,100352.00
2023-11-12T16:21:47.132Z,100356.00
2023-11-12T16:24:13.989Z,100360.00
2023-11-12T16:26:40.567Z,100363.00
2023-11-12T16:29:07.714Z,100363.00
2023-11-12T16:31:35.908Z,100380.00
2023-11-12T16:34:03.995Z,100369.00
2023-11-12T16:36:31.009Z,100370.00
2023-11-12T16:38:58.617Z,100373.00
2023-11-12T16:41:25.289Z,100366.00
2023-11-12T16:43:52.201Z,100371.00
2023-11-12T16:46:19.067Z,100377.00
2023-11-12T16:48:45.719Z,100361.00
2023-11-12T16:51:12.275Z,100367.00
2023-11-12T16:53:38.828Z,100381.00
2023-11-12T16:56:06.554Z,100378.00
2023-11-12T16:58:33.130Z,100378.00
2023-11-12T17:01:00.034Z,100382.00
2023-11-12T17:03:29.401Z,100385.00
2023-11-12T17:05:56.200Z,100378.00
2023-11-12T17:08:23.064Z,100383.00
2023-11-12T17:10:49.782Z,100385.00
2023-11-12T17:13:16.553Z,100381.00
2023-11-12T17:15:43.334Z,100386.00
2023-11-12T17:18:10.208Z,100380.00
2023-11-12T17:20:39.676Z,100388.00
2023-11-12T17:23:06.424Z,100390.00
2023-11-12T17:25:33.074Z,100395.00
2023-11-12T17:28:01.326Z,100397.00
2023-11-12T17:30:28.583Z,100389.00
2023-11-12T17:32:56.467Z,100384.00
2023-11-12T17:35:23.166Z,100391.00
2023-11-12T17:37:50.116Z,100381.00
2023-11-12T17:40:17.507Z,100399.00
2023-11-12T17:42:44.102Z,100386.00
2023-11-12T17:45:12.378Z,100394.00
2023-11-12T17:47:39.642Z,100388.00
2023-11-12T17:50:08.068Z,100402.00
2023-11-12T17:52:34.655Z,100391.00
2023-11-12T17:55:01.226Z,100397.00
2023-11-12T17:57:28.988Z,100396.00
2023-11-12T17:59:58.535Z,100400.00
2023-11-12T18:02:26.184Z,100403.00
2023-11-12T18:04:52.983Z,100407.00
2023-11-12T18:07:19.700Z,100407.00
2023-11-12T18:09:47.670Z,100406.00
2023-11-12T18:12:14.399Z,100421.00
2023-11-12T18:14:40.985Z,100416.00
2023-11-12T18:17:07.641Z,100416.00
2023-11-12T18:19:34.321Z,100416.00
2023-11-12T18:22:01.436Z,100412.00
2023-11-12T18:24:28.200Z,100421.00
2023-11-12T18:26:56.794Z,100411.00
2023-11-12T18:29:23.737Z,100409.00
2023-11-12T18:31:52.202Z,100410.00
2023-11-12T18:34:20.275Z,100413.00
2023-11-12T18:36:47.062Z,100417.00
2023-11-12T18:39:13.754Z,100409.00
2023-11-12T18:41:42.277Z,100412.00
2023-11-12T18:44:10.173Z,100412.00
2023-11-12T18:46:43.642Z,100405.00
2023-11-12T18:49:10.930Z,100411.00
2023-11-12T18:51:38.077Z,100411.00
2023-11-12T18:54:04.662Z,100415.00
2023-11-12T18:56:36.863Z,100409.00
2023-11-12T18:59:06.920Z,100409.00
2023-11-12T19:01:35.871Z,100418.00
2023-11-12T19:04:05.717Z,100426.00
2023-11-12T19:06:40.239Z,100422.00
2023-11-12T19:09:09.176Z,100424.00
2023-11-12T19:11:36.529Z,100434.00
2023-11-12T19:14:05.530Z,100434.00
2023-11-12T19:16:33.156Z,100432.00
2023-11-12T19:19:02.623Z,100441.00
2023-11-12T19:21:31.088Z,100438.00
2023-11-12T19:23:57.992Z,100440.00
2023-11-12T19:26:25.306Z,100431.00
2023-11-12T19:28:53.939Z,100434.00
2023-11-12T19:31:30.631Z,100435.00
2023-11-12T19:34:01.048Z,100436.00
2023-11-12T19:36:32.625Z,100431.00
2023-11-12T19:39:05.974Z,100424.00
2023-11-12T19:41:33.154Z,100429.00
2023-11-12T19:44:05.653Z,100424.00
2023-11-12T19:46:32.736Z,100423.00
2023-11-12T19:48:59.911Z,100433.00
2023-11-12T19:51:29.180Z,100440.00
2023-11-12T19:53:57.276Z,100448.00
2023-11-12T19:56:24.102Z,100445.00
2023-11-12T19:58:52.325Z,100444.00
2023-11-12T20:01:20.024Z,100425.00
2023-11-12T20:03:46.844Z,100439.00
2023-11-12T20:06:14.917Z,100434.00
2023-11-12T20:08:42.717Z,100435.00
2023-11-12T20:11:09.643Z,100443.00
2023-11-12T20:13:36.233Z,100427.00
2023-11-12T20:16:02.821Z,100437.00
2023-11-12T20:18:38.314Z,100440.00
2023-11-12T20:21:14.184Z,100442.00
2023-11-12T20:23:43.057Z,100438.00
2023-11-12T20:26:09.771Z,100446.00
2023-11-12T20:28:36.389Z,100450.00
2023-11-12T20:31:06.999Z,100451.00
2023-11-12T20:33:37.423Z,100442.00
2023-11-12T20:36:04.288Z,100449.00
2023-11-12T20:38:32.094Z,100445.00
2023-11-12T20:40:58.904Z,100452.00
2023-11-12T20:43:25.890Z,100451.00
2023-11-12T20:45:55.360Z,100458.00
2023-11-12T20:48:23.250Z,100459.00
2023-11-12T20:50:50.256Z,100476.00
2023-11-12T20:53:18.798Z,100475.00
2023-11-12T20:55:45.555Z,100476.00
2023-11-12T20:58:12.095Z,100476.00
2023-11-12T21:00:38.665Z,100482.00
2023-11-12T21:03:06.363Z,100484.00
2023-11-12T21:05:33.087Z,100483.00
2023-11-12T21:07:59.979Z,100485.00
2023-11-12T21:10:26.853Z,100482.00
2023-11-12T21:12:53.496Z,100483.00
2023-11-12T21:15:20.125Z,100492.00
2023-11-12T21:17:47.481Z,100497.00
2023-11-12T21:20:17.851Z,100486.00
2023-11-12T21:22:45.094Z,100495.00
2023-11-12T21:25:18.491Z,100492.00
2023-11-12T21:27:45.232Z,100487.00
2023-11-12T21:30:15.731Z,100484.00
2023-11-12T21:32:42.378Z,100489.00
2023-11-12T21:35:10.976Z,100481.00
2023-11-12T21:37:37.871Z,100489.00
2023-11-12T21:40:05.978Z,100483.00
2023-11-12T21:42:32.517Z,100483.00
2023-11-12T21:45:00.274Z,100491.00
2023-11-12T21:47:27.034Z,100490.00
2023-11-12T21:49:53.611Z,100494.00
2023-11-12T21:52:23.196Z,100489.00
2023-11-12T21:54:50.089Z,100483.00
2023-11-12T21:57:17.533Z,100494.00
2023-11-12T21:59:45.789Z,100482.00
2023-11-12T22:02:12.342Z,100486.00
2023-11-12T22:04:39.551Z,100481.00
2023-11-12T22:07:07.131Z,100484.00
2023-11-12T22:09:33.660Z,100492.00
2023-11-12T22:12:00.528Z,100487.00
2023-11-12T22:14:27.379Z,100488.00
2023-11-12T22:16:54.121Z,100481.00
2023-11-12T22:19:21.904Z,100495.00
2023-11-12T22:21:49.235Z,100496.00
2023-11-12T22:24:15.849Z,100505.00
2023-11-12T22:26:42.960Z,100491.00
2023-11-12T22:29:10.595Z,100496.00
2023-11-12T22:31:37.243Z,100501.00
2023-11-12T22:34:05.098Z,100505.00
2023-11-12T22:36:32.008Z,100507.00
2023-11-12T22:38:58.542Z,100508.00
2023-11-12T22:41:27.560Z,100497.00
2023-11-12T22:43:55.858Z,100497.00
2023-11-12T22:46:22.644Z,100511.00
2023-11-12T22:48:49.407Z,100506.00
2023-11-12T22:51:16.011Z,100508.00
2023-11-12T22:53:42.882Z,100503.00
2023-11-12T22:56:09.556Z,100514.00
2023-11-12T22:58:36.426Z,100516.00
2023-11-12T23:01:05.977Z,100514.00
2023-11-12T23:03:35.654Z,100519.00
2023-11-12T23:06:02.430Z,100521.00
2023-11-12T23:08:29.409Z,100524.00
2023-11-12T23:10:59.773Z,100517.00
2023-11-12T23:13:29.179Z,100516.00
2023-11-12T23:15:57.017Z,100517.00
2023-11-12T23:18:23.881Z,100521.00
2023-11-12T23:20:55.781Z,100524.00
2023-11-12T23:23:30.881Z,100517.00
2023-11-12T23:25:57.895Z,100520.00
2023-11-12T23:28:26.433Z,100524.00
2023-11-12T23:30:53.417Z,100521.00
2023-11-12T23:33:20.787Z,100522.00
2023-11-12T23:35:48.670Z,100519.00
2023-11-12T23:38:15.159Z,100522.00
2023-11-12T23:40:43.162Z,100528.00
2023-11-12T23:43:09.810Z,100531.00
2023-11-12T23:45:36.331Z,100530.00
2023-11-12T23:48:02.883Z,100520.00
2023-11-12T23:50:29.664Z,100534.00
2023-11-12T23:52:56.890Z,100531.00
2023-11-12T23:55:24.495Z,100538.00
2023-11-12T23:57:52.275Z,100539.00
